createdAt,value
2022-09-20T00:01:49.988Z,4.79
2022-09-20T00:04:18.932Z,4.93
2022-09-20T00:06:47.897Z,5.07
2022-09-20T00:09:16.893Z,4.92
2022-09-20T00:11:46.157Z,5.01
2022-09-20T00:14:15.198Z,5.06
2022-09-20T00:16:45.582Z,5.22
2022-09-20T00:19:21.159Z,5.11
2022-09-20T00:21:50.135Z,5.08
2022-09-20T00:24:19.312Z,5.07
2022-09-20T00:26:48.316Z,4.97
2022-09-20T00:29:17.260Z,5.07
2022-09-20T00:31:47.843Z,5.10
2022-09-20T00:34:34.350Z,5.08
2022-09-20T00:37:03.405Z,5.04
2022-09-20T00:39:32.411Z,4.86
2022-09-20T00:42:01.365Z,4.91
2022-09-20T00:45:00.662Z,4.75
2022-09-20T00:47:41.270Z,4.60
2022-09-20T00:50:33.214Z,4.75
2022-09-20T00:53:08.287Z,4.78
2022-09-20T00:55:42.298Z,4.67
2022-09-20T00:58:11.400Z,4.85
2022-09-20T01:00:41.256Z,4.84
2022-09-20T01:03:12.515Z,4.86
2022-09-20T01:05:42.512Z,4.79
2022-09-20T01:08:12.670Z,4.92
2022-09-20T01:10:42.621Z,4.92
2022-09-20T01:13:11.843Z,4.89
2022-09-20T01:15:41.705Z,4.96
2022-09-20T01:18:12.670Z,4.95
2022-09-20T01:20:44.615Z,5.01
2022-09-20T01:23:48.140Z,5.16
2022-09-20T01:27:00.165Z,5.22
2022-09-20T01:29:48.886Z,5.33
2022-09-20T01:32:26.768Z,5.35
2022-09-20T01:35:01.289Z,5.33
2022-09-20T01:37:40.287Z,5.39
2022-09-20T01:40:18.451Z,5.30
2022-09-20T01:42:56.812Z,5.33
2022-09-20T01:45:31.261Z,5.46
2022-09-20T01:48:10.940Z,5.65
2022-09-20T01:51:04.219Z,5.73
2022-09-20T01:54:11.253Z,5.72
2022-09-20T01:57:27.453Z,5.83
2022-09-20T02:00:13.221Z,5.79
2022-09-20T02:03:41.842Z,5.82
2022-09-20T02:06:40.372Z,5.87
2022-09-20T02:09:35.828Z,5.86
2022-09-20T02:12:35.298Z,5.81
2022-09-20T02:15:17.460Z,5.63
2022-09-20T02:18:02.479Z,5.71
2022-09-20T02:20:50.069Z,5.86
2022-09-20T02:23:36.217Z,5.71
2022-09-20T02:26:24.642Z,5.65
2022-09-20T02:29:02.513Z,5.84
2022-09-20T02:32:01.683Z,5.76
2022-09-20T02:34:52.086Z,5.77
2022-09-20T02:37:58.806Z,5.80
2022-09-20T02:41:16.144Z,5.76
2022-09-20T02:43:55.268Z,5.77
2022-09-20T02:46:32.516Z,5.71
2022-09-20T02:49:09.642Z,5.76
2022-09-20T02:51:43.317Z,5.81
2022-09-20T02:54:29.953Z,5.83
2022-09-20T02:57:08.260Z,6.13
2022-09-20T02:59:46.516Z,6.11
2022-09-20T03:02:26.904Z,6.11
2022-09-20T03:05:14.470Z,6.15
2022-09-20T03:08:03.284Z,6.03
2022-09-20T03:10:43.599Z,6.25
2022-09-20T03:13:24.641Z,6.26
2022-09-20T03:16:08.757Z,6.10
2022-09-20T03:18:50.178Z,6.05
2022-09-20T03:21:38.852Z,6.02
2022-09-20T03:24:21.260Z,6.05
2022-09-20T03:26:59.397Z,6.05
2022-09-20T03:29:44.921Z,6.13
2022-09-20T03:32:32.793Z,6.31
2022-09-20T03:35:21.107Z,6.34
2022-09-20T03:38:12.731Z,6.16
2022-09-20T03:41:20.218Z,6.07
2022-09-20T03:44:09.068Z,6.10
2022-09-20T03:46:46.265Z,6.19
2022-09-20T03:49:54.897Z,6.06
2022-09-20T03:52:47.416Z,6.08
2022-09-20T03:55:47.778Z,6.01
2022-09-20T03:58:36.001Z,6.16
2022-09-20T04:01:31.014Z,6.16
2022-09-20T04:04:12.896Z,6.18
2022-09-20T04:07:14.597Z,6.46
2022-09-20T04:10:24.311Z,6.27
2022-09-20T04:13:18.179Z,6.40
2022-09-20T04:16:03.940Z,6.35
2022-09-20T04:18:39.603Z,6.30
2022-09-20T04:21:17.468Z,6.15
2022-09-20T04:23:54.975Z,6.15
2022-09-20T04:26:29.444Z,6.06
2022-09-20T04:29:14.394Z,6.13
2022-09-20T04:31:54.070Z,6.13
2022-09-20T04:34:46.579Z,6.21
2022-09-20T04:37:29.757Z,6.27
2022-09-20T04:40:15.117Z,6.29
2022-09-20T04:43:33.331Z,6.45
2022-09-20T04:46:39.030Z,6.56
2022-09-20T04:50:05.628Z,6.56
2022-09-20T04:53:08.799Z,6.44
2022-09-20T04:55:57.635Z,6.38
2022-09-20T04:58:50.668Z,6.41
2022-09-20T05:02:25.945Z,6.42
2022-09-20T05:05:51.441Z,6.51
2022-09-20T05:09:02.247Z,6.58
2022-09-20T05:12:02.542Z,6.58
2022-09-20T05:15:01.579Z,6.84
2022-09-20T05:17:46.011Z,6.74
2022-09-20T05:20:44.572Z,6.64
2022-09-20T05:23:41.127Z,6.72
2022-09-20T05:26:21.488Z,6.93
2022-09-20T05:29:00.060Z,7.00
2022-09-20T05:31:40.414Z,7.04
2022-09-20T05:34:21.642Z,7.13
2022-09-20T05:36:59.965Z,6.98
2022-09-20T05:39:44.283Z,7.23
2022-09-20T05:42:24.127Z,7.29
2022-09-20T05:45:05.510Z,7.33
2022-09-20T05:47:46.302Z,7.27
2022-09-20T05:50:46.246Z,7.42
2022-09-20T05:54:06.316Z,7.48
2022-09-20T05:56:46.749Z,7.58
2022-09-20T05:59:31.688Z,7.60
2022-09-20T06:02:22.086Z,7.61
2022-09-20T06:05:03.485Z,7.82
2022-09-20T06:07:51.757Z,7.94
2022-09-20T06:10:47.300Z,8.00
2022-09-20T06:13:51.039Z,8.06
2022-09-20T06:16:30.947Z,8.06
2022-09-20T06:19:12.808Z,8.12
2022-09-20T06:21:49.552Z,8.10
2022-09-20T06:24:36.637Z,8.18
2022-09-20T06:27:15.022Z,8.26
2022-09-20T06:29:54.112Z,8.29
2022-09-20T06:32:23.058Z,8.33
2022-09-20T06:34:53.115Z,8.44
2022-09-20T06:38:02.747Z,8.52
2022-09-20T06:40:58.083Z,8.57
2022-09-20T06:43:30.992Z,8.68
2022-09-20T06:46:00.251Z,8.78
2022-09-20T06:48:31.562Z,8.89
2022-09-20T06:51:02.088Z,8.95
2022-09-20T06:53:33.664Z,9.01
2022-09-20T06:56:04.368Z,9.17
2022-09-20T06:58:37.480Z,9.25
2022-09-20T07:01:06.928Z,9.33
2022-09-20T07:03:35.915Z,9.43
2022-09-20T07:06:05.364Z,9.44
2022-09-20T07:08:34.635Z,9.59
2022-09-20T07:11:09.746Z,9.70
2022-09-20T07:13:40.131Z,9.92
2022-09-20T07:16:11.914Z,10.13
2022-09-20T07:18:42.058Z,10.12
2022-09-20T07:21:13.245Z,10.11
2022-09-20T07:23:42.338Z,10.20
2022-09-20T07:26:21.173Z,10.17
2022-09-20T07:28:52.070Z,10.46
2022-09-20T07:31:25.249Z,10.74
2022-09-20T07:33:54.545Z,10.91
2022-09-20T07:36:24.733Z,11.09
2022-09-20T07:38:54.558Z,11.17
2022-09-20T07:41:24.017Z,11.30
2022-09-20T07:43:54.483Z,11.44
2022-09-20T07:46:24.243Z,11.55
2022-09-20T07:48:53.365Z,11.77
2022-09-20T07:51:22.389Z,11.94
2022-09-20T07:53:56.144Z,12.35
2022-09-20T07:56:25.134Z,12.74
2022-09-20T07:58:55.589Z,13.21
2022-09-20T08:01:24.646Z,13.62
2022-09-20T08:03:54.125Z,14.19
2022-09-20T08:06:23.127Z,14.60
2022-09-20T08:08:52.410Z,14.73
2022-09-20T08:11:28.712Z,14.28
2022-09-20T08:14:06.141Z,13.79
2022-09-20T08:16:41.353Z,13.97
2022-09-20T08:19:15.257Z,13.83
2022-09-20T08:21:44.538Z,13.91
2022-09-20T08:24:13.880Z,13.72
2022-09-20T08:26:43.646Z,13.97
2022-09-20T08:29:15.337Z,14.19
2022-09-20T08:31:44.835Z,14.12
2022-09-20T08:34:16.104Z,14.09
2022-09-20T08:36:50.159Z,14.02
2022-09-20T08:42:25.282Z,14.27
2022-09-20T08:45:00.722Z,14.53
2022-09-20T08:47:32.500Z,14.47
2022-09-20T08:50:17.238Z,14.54
2022-09-20T08:52:49.683Z,14.45
2022-09-20T08:55:22.539Z,14.15
2022-09-20T08:57:55.054Z,14.11
2022-09-20T09:00:29.885Z,14.15
2022-09-20T09:03:05.499Z,14.34
2022-09-20T09:05:37.985Z,14.36
2022-09-20T09:08:16.476Z,14.38
2022-09-20T09:10:50.628Z,14.42
2022-09-20T09:13:26.328Z,14.49
2022-09-20T09:16:01.271Z,14.81
2022-09-20T09:18:36.442Z,14.79
2022-09-20T09:21:07.739Z,14.18
2022-09-20T09:23:44.212Z,14.25
2022-09-20T09:26:21.312Z,14.38
2022-09-20T09:29:11.461Z,14.58
2022-09-20T09:31:42.137Z,14.44
2022-09-20T09:34:26.368Z,14.21
2022-09-20T09:36:56.427Z,14.45
2022-09-20T09:39:29.076Z,14.92
2022-09-20T09:42:01.101Z,15.02
2022-09-20T09:44:33.868Z,15.66
2022-09-20T09:47:04.354Z,15.45
2022-09-20T09:49:36.366Z,15.43
2022-09-20T09:52:14.415Z,15.59
2022-09-20T09:54:50.290Z,15.37
2022-09-20T09:57:35.704Z,15.46
2022-09-20T10:00:19.355Z,15.55
2022-09-20T10:03:36.328Z,15.31
2022-09-20T10:06:18.328Z,15.84
2022-09-20T10:09:04.231Z,15.80
2022-09-20T10:11:51.666Z,15.92
2022-09-20T10:14:39.250Z,15.99
2022-09-20T10:17:40.093Z,15.75
2022-09-20T10:20:42.830Z,15.97
2022-09-20T10:26:33.154Z,16.01
2022-09-20T10:29:16.375Z,15.59
2022-09-20T10:32:01.687Z,15.06
2022-09-20T10:35:10.752Z,15.35
2022-09-20T10:38:02.593Z,15.34
2022-09-20T10:40:55.691Z,15.16
2022-09-20T10:43:45.407Z,15.15
2022-09-20T10:46:32.380Z,15.38
2022-09-20T10:49:23.955Z,15.58
2022-09-20T10:52:15.938Z,15.94
2022-09-20T10:55:14.751Z,16.44
2022-09-20T10:58:24.616Z,16.64
2022-09-20T11:01:04.149Z,16.57
2022-09-20T11:03:54.230Z,16.44
2022-09-20T11:06:34.179Z,17.03
2022-09-20T11:09:05.012Z,17.56
2022-09-20T11:11:41.141Z,17.94
2022-09-20T11:14:17.119Z,18.24
2022-09-20T11:16:52.113Z,18.32
2022-09-20T11:19:34.010Z,18.44
2022-09-20T11:22:09.977Z,17.53
2022-09-20T11:24:46.391Z,16.77
2022-09-20T11:27:22.390Z,17.40
2022-09-20T11:29:57.096Z,17.35
2022-09-20T11:32:33.037Z,17.37
2022-09-20T11:35:14.746Z,17.82
2022-09-20T11:37:52.522Z,17.09
2022-09-20T11:40:28.891Z,16.45
2022-09-20T11:43:03.908Z,15.77
2022-09-20T11:45:34.686Z,15.64
2022-09-20T11:48:11.372Z,15.24
2022-09-20T11:51:05.797Z,14.50
2022-09-20T11:53:58.462Z,13.92
2022-09-20T11:56:29.401Z,13.46
2022-09-20T11:59:03.858Z,13.67
2022-09-20T12:01:38.572Z,13.88
2022-09-20T12:04:31.825Z,14.38
2022-09-20T12:07:10.531Z,14.42
2022-09-20T12:09:44.405Z,14.42
2022-09-20T12:12:20.204Z,14.55
2022-09-20T12:15:01.542Z,14.60
2022-09-20T12:18:33.782Z,14.86
2022-09-20T12:21:16.607Z,14.89
2022-09-20T12:24:19.040Z,15.07
2022-09-20T12:26:51.366Z,15.68
2022-09-20T12:30:08.129Z,16.05
2022-09-20T12:32:57.610Z,16.23
2022-09-20T12:36:18.859Z,16.78
2022-09-20T12:39:03.358Z,18.37
2022-09-20T12:41:49.340Z,20.52
2022-09-20T12:44:40.790Z,21.13
2022-09-20T12:47:22.226Z,21.61
2022-09-20T12:50:11.007Z,19.89
2022-09-20T12:52:53.894Z,18.40
2022-09-20T12:55:55.365Z,16.56
2022-09-20T12:58:38.420Z,16.01
2022-09-20T13:01:32.940Z,15.82
2022-09-20T13:04:55.346Z,15.46
2022-09-20T13:07:53.297Z,15.25
2022-09-20T13:10:30.194Z,15.48
2022-09-20T13:13:17.353Z,15.60
2022-09-20T13:15:53.547Z,16.11
2022-09-20T13:18:25.480Z,16.15
2022-09-20T13:20:56.994Z,15.97
2022-09-20T13:23:34.356Z,16.41
2022-09-20T13:26:12.829Z,16.35
2022-09-20T13:28:59.220Z,16.54
2022-09-20T13:31:38.073Z,16.60
2022-09-20T13:34:23.038Z,16.63
2022-09-20T13:36:59.466Z,16.43
2022-09-20T13:39:43.560Z,16.33
2022-09-20T13:42:23.005Z,15.85
2022-09-20T13:45:00.342Z,16.00
2022-09-20T13:47:30.326Z,15.85
2022-09-20T13:50:03.577Z,15.66
2022-09-20T13:52:34.022Z,16.25
2022-09-20T13:55:29.714Z,16.17
2022-09-20T13:58:27.338Z,17.18
2022-09-20T14:01:09.822Z,17.08
2022-09-20T14:03:39.062Z,17.25
2022-09-20T14:06:16.052Z,17.41
2022-09-20T14:08:52.638Z,17.58
2022-09-20T14:11:34.576Z,17.30
2022-09-20T14:14:12.426Z,16.96
2022-09-20T14:16:53.039Z,18.46
2022-09-20T14:19:34.387Z,20.44
2022-09-20T14:22:06.691Z,23.30
2022-09-20T14:24:39.843Z,26.57
2022-09-20T14:27:21.763Z,27.32
2022-09-20T14:29:57.355Z,29.90
2022-09-20T14:32:46.515Z,31.38
2022-09-20T14:35:29.063Z,30.31
2022-09-20T14:38:10.318Z,33.77
2022-09-20T14:40:47.924Z,35.37
2022-09-20T14:43:32.534Z,31.88
2022-09-20T14:46:25.593Z,31.74
2022-09-20T14:48:54.828Z,26.86
2022-09-20T14:51:30.285Z,23.78
2022-09-20T14:54:33.745Z,21.12
2022-09-20T14:57:11.897Z,19.83
2022-09-20T14:59:52.310Z,18.24
2022-09-20T15:02:22.488Z,17.05
2022-09-20T15:04:57.210Z,16.42
2022-09-20T15:07:35.671Z,15.70
2022-09-20T15:10:05.557Z,15.70
2022-09-20T15:12:34.896Z,15.45
2022-09-20T15:15:07.183Z,15.09
2022-09-20T15:17:36.277Z,15.09
2022-09-20T15:20:06.651Z,15.04
2022-09-20T15:22:35.985Z,14.67
2022-09-20T15:25:06.534Z,14.67
2022-09-20T15:27:35.584Z,14.87
2022-09-20T15:30:07.719Z,14.97
2022-09-20T15:32:37.970Z,14.96
2022-09-20T15:35:14.130Z,16.65
2022-09-20T15:37:43.381Z,18.25
2022-09-20T15:40:13.831Z,19.34
2022-09-20T15:42:43.385Z,17.90
2022-09-20T15:45:14.984Z,16.29
2022-09-20T15:47:44.354Z,15.21
2022-09-20T15:50:13.683Z,14.46
2022-09-20T15:52:43.133Z,13.99
2022-09-20T15:55:13.534Z,13.89
2022-09-20T15:57:42.640Z,13.71
2022-09-20T16:00:14.715Z,13.71
2022-09-20T16:02:44.599Z,13.54
2022-09-20T16:05:13.760Z,13.55
2022-09-20T16:07:42.855Z,13.50
2022-09-20T16:10:13.166Z,13.58
2022-09-20T16:12:42.365Z,13.60
2022-09-20T16:15:14.515Z,13.55
2022-09-20T16:18:01.317Z,13.68
2022-09-20T16:20:30.418Z,13.61
2022-09-20T16:22:59.565Z,13.59
2022-09-20T16:25:28.765Z,13.52
2022-09-20T16:27:59.098Z,13.44
2022-09-20T16:30:30.883Z,13.37
2022-09-20T16:33:05.458Z,13.37
2022-09-20T16:35:34.718Z,13.23
2022-09-20T16:38:03.923Z,13.19
2022-09-20T16:40:35.166Z,13.27
2022-09-20T16:43:04.471Z,13.21
2022-09-20T16:45:36.205Z,13.17
2022-09-20T16:48:08.561Z,12.98
2022-09-20T16:50:40.049Z,12.92
2022-09-20T16:53:09.221Z,12.80
2022-09-20T16:55:38.723Z,12.75
2022-09-20T16:58:09.377Z,12.66
2022-09-20T17:00:41.365Z,12.44
2022-09-20T17:03:12.411Z,12.44
2022-09-20T17:05:42.427Z,12.39
2022-09-20T17:08:12.824Z,12.29
2022-09-20T17:10:42.229Z,12.18
2022-09-20T17:13:12.582Z,11.96
2022-09-20T17:15:44.790Z,11.81
2022-09-20T17:18:15.812Z,11.83
2022-09-20T17:20:45.141Z,11.80
2022-09-20T17:23:14.743Z,11.68
2022-09-20T17:25:46.310Z,11.64
2022-09-20T17:28:15.684Z,11.54
2022-09-20T17:30:46.152Z,11.45
2022-09-20T17:33:15.577Z,11.51
2022-09-20T17:35:52.515Z,11.57
2022-09-20T17:38:22.289Z,11.49
2022-09-20T17:41:01.842Z,11.48
2022-09-20T17:43:32.498Z,11.38
2022-09-20T17:46:14.560Z,11.43
2022-09-20T17:48:49.121Z,11.38
2022-09-20T17:51:20.685Z,11.40
2022-09-20T17:53:50.920Z,11.43
2022-09-20T17:56:23.429Z,11.35
2022-09-20T17:58:53.020Z,11.42
2022-09-20T18:01:26.009Z,11.48
2022-09-20T18:03:57.700Z,11.47
2022-09-20T18:06:31.623Z,11.43
2022-09-20T18:09:05.240Z,11.45
2022-09-20T18:11:40.464Z,11.36
2022-09-20T18:14:13.846Z,11.32
2022-09-20T18:16:45.769Z,11.23
2022-09-20T18:19:16.283Z,11.24
2022-09-20T18:21:46.014Z,11.18
2022-09-20T18:24:15.174Z,11.13
2022-09-20T18:26:44.701Z,10.95
2022-09-20T18:29:18.031Z,10.88
2022-09-20T18:31:52.192Z,10.82
2022-09-20T18:34:23.560Z,10.77
2022-09-20T18:36:55.548Z,10.80
2022-09-20T18:39:26.721Z,10.70
2022-09-20T18:41:57.384Z,10.68
2022-09-20T18:44:27.658Z,10.56
2022-09-20T18:46:58.651Z,10.43
2022-09-20T18:49:29.202Z,10.34
2022-09-20T18:51:59.231Z,10.22
2022-09-20T18:54:30.956Z,10.12
2022-09-20T18:57:01.435Z,10.03
2022-09-20T18:59:31.245Z,9.91
2022-09-20T19:02:35.721Z,9.87
2022-09-20T19:05:28.328Z,10.00
2022-09-20T19:08:17.315Z,9.90
2022-09-20T19:10:53.284Z,9.92
2022-09-20T19:13:39.453Z,10.05
2022-09-20T19:16:20.747Z,10.03
2022-09-20T19:19:20.245Z,10.08
2022-09-20T19:21:59.996Z,10.15
2022-09-20T19:25:06.802Z,10.00
2022-09-20T19:27:36.877Z,9.84
2022-09-20T19:30:08.674Z,9.70
2022-09-20T19:32:38.790Z,9.62
2022-09-20T19:35:20.201Z,9.44
2022-09-20T19:38:04.484Z,9.34
2022-09-20T19:40:46.477Z,9.26
2022-09-20T19:43:52.746Z,9.53
2022-09-20T19:46:41.595Z,9.47
2022-09-20T19:49:16.443Z,8.87
2022-09-20T19:51:47.518Z,8.94
2022-09-20T19:54:18.851Z,8.86
2022-09-20T19:57:01.842Z,8.73
2022-09-20T19:59:32.017Z,8.70
2022-09-20T20:02:02.332Z,8.69
2022-09-20T20:04:32.356Z,8.71
2022-09-20T20:07:15.539Z,8.68
2022-09-20T20:09:53.372Z,9.26
2022-09-20T20:12:31.021Z,9.11
2022-09-20T20:15:16.219Z,8.79
2022-09-20T20:17:59.049Z,8.64
2022-09-20T20:20:35.962Z,8.61
2022-09-20T20:23:49.783Z,8.53
2022-09-20T20:26:23.517Z,8.56
2022-09-20T20:28:54.985Z,8.48
2022-09-20T20:31:24.566Z,8.48
2022-09-20T20:33:55.007Z,8.60
2022-09-20T20:36:24.207Z,9.11
2022-09-20T20:39:28.970Z,9.36
2022-09-20T20:42:01.913Z,9.61
2022-09-20T20:44:32.238Z,9.35
2022-09-20T20:47:01.845Z,8.82
2022-09-20T20:49:34.268Z,8.58
2022-09-20T20:52:05.302Z,8.39
2022-09-20T20:54:36.323Z,8.25
2022-09-20T20:57:06.005Z,8.14
2022-09-20T20:59:35.350Z,8.01
2022-09-20T21:02:07.851Z,7.82
2022-09-20T21:04:37.299Z,7.79
2022-09-20T21:07:08.677Z,7.67
2022-09-20T21:09:39.829Z,7.48
2022-09-20T21:12:09.508Z,7.41
2022-09-20T21:14:41.114Z,7.43
2022-09-20T21:17:10.264Z,7.52
2022-09-20T21:19:39.811Z,7.49
2022-09-20T21:22:14.289Z,7.36
2022-09-20T21:24:45.549Z,7.23
2022-09-20T21:27:14.918Z,7.26
2022-09-20T21:29:44.233Z,7.20
2022-09-20T21:32:14.395Z,7.14
2022-09-20T21:35:11.779Z,7.23
2022-09-20T21:37:41.413Z,7.16
2022-09-20T21:40:12.866Z,7.24
2022-09-20T21:42:42.169Z,7.36
2022-09-20T21:45:11.797Z,7.20
2022-09-20T21:47:41.001Z,6.94
2022-09-20T21:50:10.846Z,6.82
2022-09-20T21:52:40.246Z,6.83
2022-09-20T21:55:11.487Z,6.75
2022-09-20T21:57:40.800Z,6.63
2022-09-20T22:00:38.980Z,6.60
2022-09-20T22:03:08.162Z,6.38
2022-09-20T22:05:37.645Z,6.31
2022-09-20T22:08:07.788Z,6.18
2022-09-20T22:10:38.301Z,6.29
2022-09-20T22:13:07.595Z,6.32
2022-09-20T22:15:36.731Z,6.33
2022-09-20T22:18:06.223Z,6.15
2022-09-20T22:20:35.374Z,6.18
2022-09-20T22:23:04.519Z,6.17
2022-09-20T22:25:34.478Z,6.28
2022-09-20T22:28:05.197Z,6.14
2022-09-20T22:30:34.808Z,6.17
2022-09-20T22:33:05.701Z,6.00
2022-09-20T22:35:35.008Z,6.08
2022-09-20T22:38:04.142Z,5.97
2022-09-20T22:40:33.324Z,5.84
2022-09-20T22:43:02.557Z,6.01
2022-09-20T22:45:33.333Z,6.10
2022-09-20T22:48:03.039Z,5.90
2022-09-20T22:50:32.100Z,5.81
2022-09-20T22:53:01.238Z,5.77
2022-09-20T22:55:30.367Z,5.83
2022-09-20T22:57:59.602Z,5.77
2022-09-20T23:00:28.906Z,5.69
2022-09-20T23:03:00.102Z,5.64
2022-09-20T23:05:29.524Z,5.74
2022-09-20T23:07:58.796Z,5.71
2022-09-20T23:10:27.967Z,5.40
2022-09-20T23:12:57.064Z,5.43
2022-09-20T23:15:26.275Z,5.45
2022-09-20T23:17:55.548Z,5.48
2022-09-20T23:20:26.261Z,5.27
2022-09-20T23:22:55.373Z,5.43
2022-09-20T23:25:24.560Z,5.31
2022-09-20T23:27:56.029Z,5.13
2022-09-20T23:30:25.458Z,5.23
2022-09-20T23:32:54.967Z,5.25
2022-09-20T23:35:25.650Z,5.30
2022-09-20T23:37:56.838Z,5.28
2022-09-20T23:40:26.049Z,5.10
2022-09-20T23:42:55.278Z,5.01
2022-09-20T23:45:24.559Z,4.92
2022-09-20T23:47:53.801Z,4.99
2022-09-20T23:50:23.042Z,5.01
2022-09-20T23:52:56.918Z,5.00
2022-09-20T23:55:26.233Z,5.05
2022-09-20T23:57:57.479Z,5.00
